Time,TemperatureF,DewpointF,PressureIn,WindDirection,WindDirectionDegrees,WindSpeedMPH,WindSpeedGustMPH,Humidity,HourlyPrecipIn,Conditions,Clouds,dailyrainin,SoftwareType,DateUTC
2013-04-26 00:05:00,49.0,43.1,30.14,West,271,0.0,0.0,80,0.00,,,0.00,Wunderground v.1.15,2013-04-26 07:05:00,
2013-04-26 00:10:00,49.0,43.1,30.14,West,271,0.0,0.0,80,0.00,,,0.00,Wunderground v.1.15,2013-04-26 07:10:00,
2013-04-26 00:15:00,48.8,42.9,30.14,West,271,0.0,0.0,80,0.00,,,0.00,Wunderground v.1.15,2013-04-26 07:15:00,
2013-04-26 00:20:00,48.7,43.1,30.14,West,271,0.0,0.0,81,0.00,,,0.00,Wunderground v.1.15,2013-04-26 07:20:00,
2013-04-26 00:25:00,48.5,42.9,30.14,West,271,0.0,0.0,81,0.00,,,0.00,Wunderground v.1.15,2013-04-26 07:25:00,
2013-04-26 00:30:00,48.4,42.8,30.15,West,271,0.0,0.0,81,0.00,,,0.00,Wunderground v.1.15,2013-04-26 07:30:00,
2013-04-26 00:35:00,48.4,43.2,30.15,West,271,0.0,0.0,82,0.00,,,0.00,Wunderground v.1.15,2013-04-26 07:35:00,
2013-04-26 00:40:00,48.2,43.0,30.15,West,271,0.0,0.0,82,0.00,,,0.00,Wunderground v.1.15,2013-04-26 07:40:00,
2013-04-26 00:45:00,48.1,42.9,30.15,West,271,0.0,0.0,82,0.00,,,0.00,Wunderground v.1.15,2013-04-26 07:45:00,
2013-04-26 00:50:00,47.9,42.7,30.15,West,271,0.0,0.0,82,0.00,,,0.00,Wunderground v.1.15,2013-04-26 07:50:00,
2013-04-26 00:55:00,47.8,42.6,30.15,West,271,0.0,0.0,82,0.00,,,0.00,Wunderground v.1.15,2013-04-26 07:55:00,
2013-04-26 01:00:00,47.5,42.3,30.15,West,271,0.0,0.0,82,0.00,,,0.00,Wunderground v.1.15,2013-04-26 08:00:00,
2013-04-26 01:10:00,47.0,42.1,30.15,West,271,0.0,0.0,83,0.00,,,0.00,Wunderground v.1.15,2013-04-26 08:10:00,
2013-04-26 01:20:00,46.3,41.7,30.16,West,271,0.0,0.0,84,0.00,,,0.00,Wunderground v.1.15,2013-04-26 08:20:00,
2013-04-26 01:25:00,46.0,41.7,30.16,West,271,0.0,0.0,85,0.00,,,0.00,Wunderground v.1.15,2013-04-26 08:25:00,
2013-04-26 01:30:00,45.7,41.4,30.17,West,271,0.0,0.0,85,0.00,,,0.00,Wunderground v.1.15,2013-04-26 08:30:00,
2013-04-26 01:35:00,45.6,41.7,30.17,West,271,0.0,0.0,86,0.00,,,0.00,Wunderground v.1.15,2013-04-26 08:35:00,
2013-04-26 01:40:00,45.4,41.5,30.17,West,271,0.0,0.0,86,0.00,,,0.00,Wunderground v.1.15,2013-04-26 08:40:00,
2013-04-26 01:45:00,45.4,41.5,30.17,West,271,0.0,0.0,86,0.00,,,0.00,Wunderground v.1.15,2013-04-26 08:45:00,
2013-04-26 01:50:00,45.4,41.5,30.17,West,271,0.0,0.0,86,0.00,,,0.00,Wunderground v.1.15,2013-04-26 08:50:00,
2013-04-26 01:55:00,45.4,41.5,30.17,West,271,0.0,0.0,86,0.00,,,0.00,Wunderground v.1.15,2013-04-26 08:55:00,
2013-04-26 02:00:00,45.4,41.5,30.17,West,271,0.0,0.0,86,0.00,,,0.00,Wunderground v.1.15,2013-04-26 09:00:00,
2013-04-26 02:05:00,45.3,41.1,30.17,West,271,0.0,0.0,85,0.00,,,0.00,Wunderground v.1.15,2013-04-26 09:05:00,
2013-04-26 02:10:00,45.3,41.1,30.17,West,271,0.0,0.0,85,0.00,,,0.00,Wunderground v.1.15,2013-04-26 09:10:00,
2013-04-26 02:15:00,45.3,41.4,30.17,West,271,0.0,0.0,86,0.00,,,0.00,Wunderground v.1.15,2013-04-26 09:15:00,
2013-04-26 02:25:00,45.0,41.4,30.17,West,271,0.0,0.0,87,0.00,,,0.00,Wunderground v.1.15,2013-04-26 09:25:00,
2013-04-26 02:30:00,44.8,40.9,30.17,West,271,0.0,0.0,86,0.00,,,0.00,Wunderground v.1.15,2013-04-26 09:30:00,
2013-04-26 02:35:00,44.7,40.8,30.17,West,271,0.0,0.0,86,0.00,,,0.00,Wunderground v.1.15,2013-04-26 09:35:00,
2013-04-26 02:40:00,44.6,40.7,30.17,West,271,0.0,0.0,86,0.00,,,0.00,Wunderground v.1.15,2013-04-26 09:40:00,
2013-04-26 02:50:00,44.0,40.4,30.18,West,271,0.0,0.0,87,0.00,,,0.00,Wunderground v.1.15,2013-04-26 09:50:00,
2013-04-26 02:55:00,44.0,40.4,30.18,West,271,0.0,0.0,87,0.00,,,0.00,Wunderground v.1.15,2013-04-26 09:55:00,
2013-04-26 03:00:00,43.8,40.2,30.18,West,271,0.0,0.0,87,0.00,,,0.00,Wunderground v.1.15,2013-04-26 10:00:00,
2013-04-26 03:05:00,43.8,40.2,30.18,West,271,0.0,0.0,87,0.00,,,0.00,Wunderground v.1.15,2013-04-26 10:05:00,
2013-04-26 03:10:00,43.8,40.2,30.18,West,271,0.0,0.0,87,0.00,,,0.00,Wunderground v.1.15,2013-04-26 10:10:00,
2013-04-26 03:15:00,43.7,40.1,30.19,West,271,0.0,0.0,87,0.00,,,0.00,Wunderground v.1.15,2013-04-26 10:15:00,
2013-04-26 03:25:00,43.6,40.0,30.19,West,271,0.0,0.0,87,0.00,,,0.00,Wunderground v.1.15,2013-04-26 10:25:00,
2013-04-26 03:30:00,43.4,39.8,30.19,West,271,0.0,0.0,87,0.00,,,0.00,Wunderground v.1.15,2013-04-26 10:30:00,
2013-04-26 03:35:00,43.4,39.8,30.19,West,271,0.0,0.0,87,0.00,,,0.00,Wunderground v.1.15,2013-04-26 10:35:00,
2013-04-26 03:40:00,43.3,39.7,30.19,West,271,0.0,0.0,87,0.00,,,0.00,Wunderground v.1.15,2013-04-26 10:40:00,
2013-04-26 03:45:00,43.1,39.5,30.19,West,271,0.0,0.0,87,0.00,,,0.00,Wunderground v.1.15,2013-04-26 10:45:00,
2013-04-26 03:55:00,43.0,39.4,30.19,West,271,0.0,0.0,87,0.00,,,0.00,Wunderground v.1.15,2013-04-26 10:55:00,
2013-04-26 04:00:00,42.8,39.2,30.19,West,271,0.0,0.0,87,0.00,,,0.00,Wunderground v.1.15,2013-04-26 11:00:00,
2013-04-26 04:05:00,42.7,39.1,30.19,West,271,0.0,0.0,87,0.00,,,0.00,Wunderground v.1.15,2013-04-26 11:05:00,
2013-04-26 04:10:00,42.6,39.0,30.19,West,271,0.0,0.0,87,0.00,,,0.00,Wunderground v.1.15,2013-04-26 11:10:00,
2013-04-26 04:15:00,42.6,39.0,30.20,West,271,0.0,0.0,87,0.00,,,0.00,Wunderground v.1.15,2013-04-26 11:15:00,
2013-04-26 04:20:00,42.4,38.8,30.20,West,271,0.0,0.0,87,0.00,,,0.00,Wunderground v.1.15,2013-04-26 11:20:00,
2013-04-26 04:25:00,42.4,38.8,30.20,West,271,0.0,0.0,87,0.00,,,0.00,Wunderground v.1.15,2013-04-26 11:25:00,
2013-04-26 04:30:00,42.4,39.1,30.20,West,271,0.0,0.0,88,0.00,,,0.00,Wunderground v.1.15,2013-04-26 11:30:00,
2013-04-26 04:35:00,42.3,39.0,30.20,West,271,0.0,0.0,88,0.00,,,0.00,Wunderground v.1.15,2013-04-26 11:35:00,
2013-04-26 04:40:00,42.4,39.1,30.20,West,271,0.0,0.0,88,0.00,,,0.00,Wunderground v.1.15,2013-04-26 11:40:00,
2013-04-26 04:45:00,42.3,39.0,30.20,West,271,0.0,0.0,88,0.00,,,0.00,Wunderground v.1.15,2013-04-26 11:45:00,
2013-04-26 04:50:00,42.3,39.0,30.20,West,271,0.0,0.0,88,0.00,,,0.00,Wunderground v.1.15,2013-04-26 11:50:00,
2013-04-26 04:55:00,42.1,38.8,30.20,West,271,0.0,0.0,88,0.00,,,0.00,Wunderground v.1.15,2013-04-26 11:55:00,
2013-04-26 05:00:00,42.0,38.7,30.19,West,271,0.0,0.0,88,0.00,,,0.00,Wunderground v.1.15,2013-04-26 12:00:00,
2013-04-26 05:05:00,41.8,38.5,30.19,West,271,0.0,0.0,88,0.00,,,0.00,Wunderground v.1.15,2013-04-26 12:05:00,
2013-04-26 05:10:00,41.8,38.5,30.19,West,271,0.0,0.0,88,0.00,,,0.00,Wunderground v.1.15,2013-04-26 12:10:00,
2013-04-26 05:20:00,41.8,38.8,30.19,West,271,0.0,0.0,89,0.00,,,0.00,Wunderground v.1.15,2013-04-26 12:20:00,
2013-04-26 05:30:00,41.6,38.3,30.20,West,271,0.0,0.0,88,0.00,,,0.00,Wunderground v.1.15,2013-04-26 12:30:00,
2013-04-26 05:35:00,41.6,38.3,30.20,West,271,0.0,0.0,88,0.00,,,0.00,Wunderground v.1.15,2013-04-26 12:35:00,
2013-04-26 05:40:00,41.4,38.4,30.20,West,271,0.0,0.0,89,0.00,,,0.00,Wunderground v.1.15,2013-04-26 12:40:00,
2013-04-26 05:45:00,41.4,38.1,30.20,West,271,0.0,0.0,88,0.00,,,0.00,Wunderground v.1.15,2013-04-26 12:45:00,
2013-04-26 05:50:00,41.3,38.0,30.20,West,271,0.0,0.0,88,0.00,,,0.00,Wunderground v.1.15,2013-04-26 12:50:00,
2013-04-26 05:55:00,41.3,38.3,30.20,West,271,0.0,0.0,89,0.00,,,0.00,Wunderground v.1.15,2013-04-26 12:55:00,
2013-04-26 06:05:00,40.8,37.8,30.20,West,271,0.0,0.0,89,0.00,,,0.00,Wunderground v.1.15,2013-04-26 13:05:00,
2013-04-26 06:15:00,40.4,37.4,30.21,West,271,0.0,0.0,89,0.00,,,0.00,Wunderground v.1.15,2013-04-26 13:15:00,
2013-04-26 06:20:00,40.3,37.6,30.21,West,271,0.0,0.0,90,0.00,,,0.00,Wunderground v.1.15,2013-04-26 13:20:00,
2013-04-26 06:25:00,40.3,37.6,30.21,West,271,0.0,0.0,90,0.00,,,0.00,Wunderground v.1.15,2013-04-26 13:25:00,
2013-04-26 06:30:00,40.3,37.6,30.22,West,271,0.0,0.0,90,0.00,,,0.00,Wunderground v.1.15,2013-04-26 13:30:00,
2013-04-26 06:35:00,40.3,37.6,30.22,West,271,0.0,0.0,90,0.00,,,0.00,Wunderground v.1.15,2013-04-26 13:35:00,
2013-04-26 06:40:00,40.3,37.6,30.22,West,271,0.0,0.0,90,0.00,,,0.00,Wunderground v.1.15,2013-04-26 13:40:00,
2013-04-26 06:45:00,40.3,37.6,30.22,West,271,0.0,0.0,90,0.00,,,0.00,Wunderground v.1.15,2013-04-26 13:45:00,
2013-04-26 06:50:00,40.3,37.9,30.22,West,271,0.0,0.0,91,0.00,,,0.00,Wunderground v.1.15,2013-04-26 13:50:00,
2013-04-26 06:55:00,40.4,38.0,30.22,West,271,0.0,0.0,91,0.00,,,0.00,Wunderground v.1.15,2013-04-26 13:55:00,
2013-04-26 07:00:00,40.6,38.2,30.22,West,271,0.0,0.0,91,0.00,,,0.00,Wunderground v.1.15,2013-04-26 14:00:00,
2013-04-26 07:05:00,40.7,38.6,30.22,West,271,0.0,0.0,92,0.00,,,0.00,Wunderground v.1.15,2013-04-26 14:05:00,
2013-04-26 07:10:00,40.8,38.7,30.22,West,271,0.0,0.0,92,0.00,,,0.00,Wunderground v.1.15,2013-04-26 14:10:00,
2013-04-26 07:15:00,41.1,39.0,30.22,West,271,0.0,0.0,92,0.00,,,0.00,Wunderground v.1.15,2013-04-26 14:15:00,
2013-04-26 07:25:00,41.6,39.4,30.22,West,271,0.0,0.0,92,0.00,,,0.00,Wunderground v.1.15,2013-04-26 14:25:00,
2013-04-26 07:30:00,41.8,39.6,30.23,West,271,0.0,0.0,92,0.00,,,0.00,Wunderground v.1.15,2013-04-26 14:30:00,
2013-04-26 07:35:00,42.4,40.5,30.23,West,271,0.0,0.0,93,0.00,,,0.00,Wunderground v.1.15,2013-04-26 14:35:00,
2013-04-26 07:40:00,43.0,41.1,30.23,West,271,0.0,0.0,93,0.00,,,0.00,Wunderground v.1.15,2013-04-26 14:40:00,
2013-04-26 07:45:00,43.3,41.4,30.23,West,271,0.0,0.0,93,0.00,,,0.00,Wunderground v.1.15,2013-04-26 14:45:00,
2013-04-26 07:50:00,43.6,41.7,30.23,West,271,0.0,0.0,93,0.00,,,0.00,Wunderground v.1.15,2013-04-26 14:50:00,
2013-04-26 07:55:00,43.8,41.9,30.23,West,271,0.0,0.0,93,0.00,,,0.00,Wunderground v.1.15,2013-04-26 14:55:00,
2013-04-26 08:00:00,44.4,42.5,30.23,WNW,292,0.0,0.0,93,0.00,,,0.00,Wunderground v.1.15,2013-04-26 15:00:00,
2013-04-26 08:05:00,45.0,43.1,30.23,NW,315,0.0,1.0,93,0.00,,,0.00,Wunderground v.1.15,2013-04-26 15:05:00,
2013-04-26 08:10:00,45.6,43.4,30.23,NNE,26,0.0,0.0,92,0.00,,,0.00,Wunderground v.1.15,2013-04-26 15:10:00,
2013-04-26 08:15:00,46.3,43.8,30.23,NNE,26,0.0,0.0,91,0.00,,,0.00,Wunderground v.1.15,2013-04-26 15:15:00,
2013-04-26 08:20:00,46.7,43.9,30.23,NNE,26,0.0,0.0,90,0.00,,,0.00,Wunderground v.1.15,2013-04-26 15:20:00,
2013-04-26 08:25:00,47.3,43.9,30.23,NNE,26,0.0,0.0,88,0.00,,,0.00,Wunderground v.1.15,2013-04-26 15:25:00,
2013-04-26 08:30:00,47.8,44.4,30.23,NNE,26,0.0,2.0,88,0.00,,,0.00,Wunderground v.1.15,2013-04-26 15:30:00,
2013-04-26 08:35:00,48.5,44.8,30.23,NE,44,1.0,2.0,87,0.00,,,0.00,Wunderground v.1.15,2013-04-26 15:35:00,
2013-04-26 08:45:00,50.0,45.4,30.23,NE,45,0.0,1.0,84,0.00,,,0.00,Wunderground v.1.15,2013-04-26 15:45:00,
2013-04-26 08:50:00,50.7,45.4,30.23,NE,51,1.0,1.0,82,0.00,,,0.00,Wunderground v.1.15,2013-04-26 15:50:00,
2013-04-26 08:55:00,51.3,45.7,30.23,NE,49,0.0,1.0,81,0.00,,,0.00,Wunderground v.1.15,2013-04-26 15:55:00,
2013-04-26 09:00:00,52.1,45.8,30.23,NE,56,0.0,0.0,79,0.00,,,0.00,Wunderground v.1.15,2013-04-26 16:00:00,
2013-04-26 09:05:00,53.1,45.4,30.23,NE,53,0.0,0.0,75,0.00,,,0.00,Wunderground v.1.15,2013-04-26 16:05:00,
2013-04-26 09:10:00,53.6,45.2,30.23,South,184,0.0,0.0,73,0.00,,,0.00,Wunderground v.1.15,2013-04-26 16:10:00,
2013-04-26 09:15:00,54.0,44.8,30.23,South,184,0.0,0.0,71,0.00,,,0.00,Wunderground v.1.15,2013-04-26 16:15:00,
2013-04-26 09:20:00,54.7,45.5,30.23,NE,36,0.0,1.0,71,0.00,,,0.00,Wunderground v.1.15,2013-04-26 16:20:00,
2013-04-26 09:30:00,55.9,45.5,30.23,NE,40,0.0,0.0,68,0.00,,,0.00,Wunderground v.1.15,2013-04-26 16:30:00,
2013-04-26 09:35:00,56.4,46.4,30.23,NE,35,0.0,1.0,69,0.00,,,0.00,Wunderground v.1.15,2013-04-26 16:35:00,
2013-04-26 09:40:00,56.8,46.0,30.23,NE,44,1.0,1.0,67,0.00,,,0.00,Wunderground v.1.15,2013-04-26 16:40:00,
2013-04-26 09:45:00,57.1,45.8,30.22,South,169,1.0,1.0,66,0.00,,,0.00,Wunderground v.1.15,2013-04-26 16:45:00,
2013-04-26 09:50:00,57.2,45.9,30.22,South,169,0.0,0.0,66,0.00,,,0.00,Wunderground v.1.15,2013-04-26 16:50:00,
2013-04-26 09:55:00,57.5,45.4,30.22,SSW,211,0.0,0.0,64,0.00,,,0.00,Wunderground v.1.15,2013-04-26 16:55:00,
2013-04-26 10:00:00,57.7,46.0,30.22,SSW,211,0.0,0.0,65,0.00,,,0.00,Wunderground v.1.15,2013-04-26 17:00:00,
2013-04-26 10:05:00,58.0,45.5,30.22,South,190,0.0,0.0,63,0.00,,,0.00,Wunderground v.1.15,2013-04-26 17:05:00,
2013-04-26 10:10:00,58.1,46.8,30.22,WSW,258,1.0,1.0,66,0.00,,,0.00,Wunderground v.1.15,2013-04-26 17:10:00,
2013-04-26 10:15:00,58.3,47.4,30.23,WSW,258,0.0,1.0,67,0.00,,,0.00,Wunderground v.1.15,2013-04-26 17:15:00,
2013-04-26 10:20:00,58.6,47.7,30.23,WSW,254,0.0,1.0,67,0.00,,,0.00,Wunderground v.1.15,2013-04-26 17:20:00,
2013-04-26 10:25:00,58.6,46.9,30.23,West,266,0.0,1.0,65,0.00,,,0.00,Wunderground v.1.15,2013-04-26 17:25:00,
2013-04-26 10:30:00,58.6,47.7,30.22,West,279,0.0,0.0,67,0.00,,,0.00,Wunderground v.1.15,2013-04-26 17:30:00,
2013-04-26 10:35:00,58.8,47.5,30.22,WNW,288,0.0,0.0,66,0.00,,,0.00,Wunderground v.1.15,2013-04-26 17:35:00,
2013-04-26 10:40:00,59.1,47.7,30.22,NE,36,0.0,1.0,66,0.00,,,0.00,Wunderground v.1.15,2013-04-26 17:40:00,
2013-04-26 10:45:00,59.4,48.4,30.23,NNE,31,0.0,1.0,67,0.00,,,0.00,Wunderground v.1.15,2013-04-26 17:45:00,
2013-04-26 10:50:00,60.0,49.0,30.23,NNW,336,0.0,0.0,67,0.00,,,0.00,Wunderground v.1.15,2013-04-26 17:50:00,
2013-04-26 11:00:00,61.2,49.7,30.23,WSW,252,0.0,0.0,66,0.00,,,0.00,Wunderground v.1.15,2013-04-26 18:00:00,
2013-04-26 11:05:00,61.7,49.8,30.23,SE,144,1.0,1.0,65,0.00,,,0.00,Wunderground v.1.15,2013-04-26 18:05:00,
2013-04-26 11:10:00,62.0,48.8,30.23,SW,214,1.0,1.0,62,0.00,,,0.00,Wunderground v.1.15,2013-04-26 18:10:00,
2013-04-26 11:15:00,62.0,48.8,30.24,WSW,240,1.0,1.0,62,0.00,,,0.00,Wunderground v.1.15,2013-04-26 18:15:00,
2013-04-26 11:20:00,61.8,49.5,30.24,South,173,1.0,1.0,64,0.00,,,0.00,Wunderground v.1.15,2013-04-26 18:20:00,
2013-04-26 11:30:00,61.7,48.1,30.24,West,277,1.0,1.0,61,0.00,,,0.00,Wunderground v.1.15,2013-04-26 18:30:00,
2013-04-26 11:40:00,61.8,49.1,30.24,WSW,244,1.0,1.0,63,0.00,,,0.00,Wunderground v.1.15,2013-04-26 18:40:00,
2013-04-26 11:45:00,62.0,48.0,30.24,SE,142,1.0,1.0,60,0.00,,,0.00,Wunderground v.1.15,2013-04-26 18:45:00,
2013-04-26 11:50:00,62.1,47.6,30.24,WSW,250,0.0,0.0,59,0.00,,,0.00,Wunderground v.1.15,2013-04-26 18:50:00,
2013-04-26 11:55:00,62.3,46.9,30.24,West,276,0.0,0.0,57,0.00,,,0.00,Wunderground v.1.15,2013-04-26 18:55:00,
2013-04-26 12:00:00,62.3,46.9,30.24,SE,135,0.0,3.0,57,0.00,,,0.00,Wunderground v.1.15,2013-04-26 19:00:00,
2013-04-26 12:05:00,62.8,48.3,30.24,SE,136,1.0,3.0,59,0.00,,,0.00,Wunderground v.1.15,2013-04-26 19:05:00,
2013-04-26 12:10:00,62.9,46.0,30.24,SW,223,1.0,1.0,54,0.00,,,0.00,Wunderground v.1.15,2013-04-26 19:10:00,
2013-04-26 12:15:00,63.1,47.1,30.23,WSW,255,0.0,1.0,56,0.00,,,0.00,Wunderground v.1.15,2013-04-26 19:15:00,
2013-04-26 12:20:00,63.2,47.2,30.23,WSW,257,0.0,1.0,56,0.00,,,0.00,Wunderground v.1.15,2013-04-26 19:20:00,
2013-04-26 12:25:00,63.6,47.6,30.23,WNW,293,1.0,1.0,56,0.00,,,0.00,Wunderground v.1.15,2013-04-26 19:25:00,
2013-04-26 12:30:00,63.9,47.9,30.23,South,178,1.0,2.0,56,0.00,,,0.00,Wunderground v.1.15,2013-04-26 19:30:00,
2013-04-26 12:35:00,64.4,48.8,30.23,South,173,0.0,2.0,57,0.00,,,0.00,Wunderground v.1.15,2013-04-26 19:35:00,
2013-04-26 12:40:00,64.7,48.6,30.23,SE,133,0.0,0.0,56,0.00,,,0.00,Wunderground v.1.15,2013-04-26 19:40:00,
2013-04-26 12:50:00,65.5,48.4,30.23,WSW,250,1.0,2.0,54,0.00,,,0.00,Wunderground v.1.15,2013-04-26 19:50:00,
2013-04-26 12:55:00,65.8,48.7,30.23,SSE,154,1.0,2.0,54,0.00,,,0.00,Wunderground v.1.15,2013-04-26 19:55:00,
2013-04-26 13:00:00,66.1,48.5,30.23,SSW,194,0.0,0.0,53,0.00,,,0.00,Wunderground v.1.15,2013-04-26 20:00:00,
2013-04-26 13:05:00,66.6,48.4,30.23,WSW,241,0.0,1.0,52,0.00,,,0.00,Wunderground v.1.15,2013-04-26 20:05:00,
2013-04-26 13:10:00,66.8,47.6,30.23,ESE,122,0.0,0.0,50,0.00,,,0.00,Wunderground v.1.15,2013-04-26 20:10:00,
2013-04-26 13:15:00,66.9,47.1,30.23,NNE,15,0.0,0.0,49,0.00,,,0.00,Wunderground v.1.15,2013-04-26 20:15:00,
2013-04-26 13:20:00,67.1,47.3,30.23,SSE,153,0.0,0.0,49,0.00,,,0.00,Wunderground v.1.15,2013-04-26 20:20:00,
2013-04-26 13:30:00,67.6,46.1,30.23,SSE,165,0.0,0.0,46,0.00,,,0.00,Wunderground v.1.15,2013-04-26 20:30:00,
2013-04-26 13:35:00,67.9,45.8,30.23,SSE,167,1.0,1.0,45,0.00,,,0.00,Wunderground v.1.15,2013-04-26 20:35:00,
2013-04-26 13:40:00,68.1,44.1,30.23,WSW,240,1.0,2.0,42,0.00,,,0.00,Wunderground v.1.15,2013-04-26 20:40:00,
2013-04-26 13:45:00,67.9,44.6,30.23,West,278,1.0,2.0,43,0.00,,,0.00,Wunderground v.1.15,2013-04-26 20:45:00,
2013-04-26 13:50:00,67.8,46.3,30.23,SSW,212,1.0,1.0,46,0.00,,,0.00,Wunderground v.1.15,2013-04-26 20:50:00,
2013-04-26 13:55:00,67.9,46.3,30.23,South,187,1.0,1.0,46,0.00,,,0.00,Wunderground v.1.15,2013-04-26 20:55:00,
2013-04-26 14:00:00,68.4,47.4,30.23,NNW,342,1.0,1.0,47,0.00,,,0.00,Wunderground v.1.15,2013-04-26 21:00:00,
2013-04-26 14:05:00,68.6,45.2,30.23,West,273,0.0,1.0,43,0.00,,,0.00,Wunderground v.1.15,2013-04-26 21:05:00,
2013-04-26 14:10:00,68.9,44.2,30.23,South,169,1.0,1.0,41,0.00,,,0.00,Wunderground v.1.15,2013-04-26 21:10:00,
2013-04-26 14:15:00,69.1,46.9,30.23,SSE,154,1.0,1.0,45,0.00,,,0.00,Wunderground v.1.15,2013-04-26 21:15:00,
2013-04-26 14:20:00,68.8,44.8,30.23,SSW,213,0.0,0.0,42,0.00,,,0.00,Wunderground v.1.15,2013-04-26 21:20:00,
2013-04-26 14:30:00,68.6,46.4,30.23,West,267,0.0,3.0,45,0.00,,,0.00,Wunderground v.1.15,2013-04-26 21:30:00,
2013-04-26 14:35:00,68.4,46.8,30.23,West,267,1.0,3.0,46,0.00,,,0.00,Wunderground v.1.15,2013-04-26 21:35:00,
2013-04-26 14:40:00,68.6,47.6,30.23,South,187,1.0,2.0,47,0.00,,,0.00,Wunderground v.1.15,2013-04-26 21:40:00,
2013-04-26 14:45:00,68.6,48.1,30.23,SSW,193,1.0,2.0,48,0.00,,,0.00,Wunderground v.1.15,2013-04-26 21:45:00,
2013-04-26 14:50:00,68.3,47.8,30.23,West,275,1.0,1.0,48,0.00,,,0.00,Wunderground v.1.15,2013-04-26 21:50:00,
2013-04-26 15:00:00,67.8,49.0,30.23,SW,221,1.0,1.0,51,0.00,,,0.00,Wunderground v.1.15,2013-04-26 22:00:00,
2013-04-26 15:05:00,67.6,48.3,30.23,SSE,150,1.0,1.0,50,0.00,,,0.00,Wunderground v.1.15,2013-04-26 22:05:00,
2013-04-26 15:10:00,67.4,47.6,30.23,West,267,1.0,1.0,49,0.00,,,0.00,Wunderground v.1.15,2013-04-26 22:10:00,
2013-04-26 15:15:00,67.3,49.1,30.22,SE,126,0.0,1.0,52,0.00,,,0.00,Wunderground v.1.15,2013-04-26 22:15:00,
2013-04-26 15:20:00,67.1,47.8,30.22,South,173,0.0,0.0,50,0.00,,,0.00,Wunderground v.1.15,2013-04-26 22:20:00,
2013-04-26 15:25:00,67.1,48.4,30.22,SSW,202,0.0,0.0,51,0.00,,,0.00,Wunderground v.1.15,2013-04-26 22:25:00,
2013-04-26 15:30:00,66.8,48.1,30.22,West,268,0.0,0.0,51,0.00,,,0.00,Wunderground v.1.15,2013-04-26 22:30:00,
2013-04-26 15:35:00,66.5,47.8,30.22,West,268,0.0,0.0,51,0.00,,,0.00,Wunderground v.1.15,2013-04-26 22:35:00,
2013-04-26 15:40:00,66.1,49.0,30.22,West,268,0.0,0.0,54,0.00,,,0.00,Wunderground v.1.15,2013-04-26 22:40:00,
2013-04-26 15:45:00,66.1,49.0,30.22,West,268,0.0,0.0,54,0.00,,,0.00,Wunderground v.1.15,2013-04-26 22:45:00,
2013-04-26 15:50:00,66.1,49.0,30.22,West,268,0.0,0.0,54,0.00,,,0.00,Wunderground v.1.15,2013-04-26 22:50:00,
2013-04-26 16:00:00,65.8,48.2,30.21,West,268,0.0,0.0,53,0.00,,,0.00,Wunderground v.1.15,2013-04-26 23:00:00,
2013-04-26 16:10:00,65.7,48.6,30.21,West,268,0.0,0.0,54,0.00,,,0.00,Wunderground v.1.15,2013-04-26 23:10:00,
2013-04-26 16:15:00,65.7,49.1,30.20,West,268,0.0,0.0,55,0.00,,,0.00,Wunderground v.1.15,2013-04-26 23:15:00,
2013-04-26 16:20:00,65.7,48.1,30.20,West,267,0.0,0.0,53,0.00,,,0.00,Wunderground v.1.15,2013-04-26 23:20:00,
2013-04-26 16:25:00,65.8,49.2,30.20,West,267,0.0,0.0,55,0.00,,,0.00,Wunderground v.1.15,2013-04-26 23:25:00,
2013-04-26 16:30:00,65.8,48.2,30.20,SSW,194,0.0,0.0,53,0.00,,,0.00,Wunderground v.1.15,2013-04-26 23:30:00,
2013-04-26 16:35:00,65.8,48.7,30.20,SSW,199,0.0,0.0,54,0.00,,,0.00,Wunderground v.1.15,2013-04-26 23:35:00,
2013-04-26 16:40:00,65.8,48.2,30.20,WSW,257,0.0,0.0,53,0.00,,,0.00,Wunderground v.1.15,2013-04-26 23:40:00,
2013-04-26 16:50:00,65.5,48.4,30.21,West,265,0.0,0.0,54,0.00,,,0.00,Wunderground v.1.15,2013-04-26 23:50:00,
2013-04-26 17:05:00,65.5,47.9,30.20,South,175,0.0,0.0,53,0.00,,,0.00,Wunderground v.1.15,2013-04-27 00:05:00,
2013-04-26 17:10:00,65.3,48.2,30.20,South,175,0.0,0.0,54,0.00,,,0.00,Wunderground v.1.15,2013-04-27 00:10:00,
2013-04-26 17:15:00,65.2,48.1,30.20,West,277,0.0,0.0,54,0.00,,,0.00,Wunderground v.1.15,2013-04-27 00:15:00,
2013-04-26 17:25:00,64.8,48.7,30.20,West,277,0.0,0.0,56,0.00,,,0.00,Wunderground v.1.15,2013-04-27 00:25:00,
2013-04-26 17:30:00,64.5,48.0,30.20,West,277,0.0,1.0,55,0.00,,,0.00,Wunderground v.1.15,2013-04-27 00:30:00,
2013-04-26 17:35:00,64.4,48.4,30.20,West,277,0.0,1.0,56,0.00,,,0.00,Wunderground v.1.15,2013-04-27 00:35:00,
2013-04-26 17:40:00,64.4,48.8,30.20,West,277,0.0,1.0,57,0.00,,,0.00,Wunderground v.1.15,2013-04-27 00:40:00,
2013-04-26 17:45:00,64.2,48.6,30.20,West,277,0.0,1.0,57,0.00,,,0.00,Wunderground v.1.15,2013-04-27 00:45:00,
2013-04-26 17:50:00,64.2,48.6,30.20,West,277,0.0,1.0,57,0.00,,,0.00,Wunderground v.1.15,2013-04-27 00:50:00,
2013-04-26 17:55:00,64.0,48.5,30.20,West,277,0.0,1.0,57,0.00,,,0.00,Wunderground v.1.15,2013-04-27 00:55:00,
2013-04-26 18:00:00,63.9,49.3,30.20,WNW,290,0.0,0.0,59,0.00,,,0.00,Wunderground v.1.15,2013-04-27 01:00:00,
2013-04-26 18:05:00,64.0,49.4,30.20,WNW,290,0.0,0.0,59,0.00,,,0.00,Wunderground v.1.15,2013-04-27 01:05:00,
2013-04-26 18:15:00,64.0,49.4,30.20,WNW,290,0.0,0.0,59,0.00,,,0.00,Wunderground v.1.15,2013-04-27 01:15:00,
2013-04-26 18:20:00,64.0,49.8,30.20,WNW,290,0.0,0.0,60,0.00,,,0.00,Wunderground v.1.15,2013-04-27 01:20:00,
2013-04-26 18:25:00,63.9,48.4,30.20,WNW,290,0.0,0.0,57,0.00,,,0.00,Wunderground v.1.15,2013-04-27 01:25:00,
2013-04-26 18:30:00,63.7,48.6,30.20,WNW,290,0.0,0.0,58,0.00,,,0.00,Wunderground v.1.15,2013-04-27 01:30:00,
2013-04-26 18:35:00,63.6,48.5,30.20,WNW,290,0.0,0.0,58,0.00,,,0.00,Wunderground v.1.15,2013-04-27 01:35:00,
2013-04-26 18:40:00,63.4,48.4,30.20,WNW,290,0.0,0.0,58,0.00,,,0.00,Wunderground v.1.15,2013-04-27 01:40:00,
2013-04-26 18:45:00,63.2,48.2,30.20,WNW,290,0.0,0.0,58,0.00,,,0.00,Wunderground v.1.15,2013-04-27 01:45:00,
2013-04-26 18:55:00,63.2,48.2,30.20,West,267,0.0,0.0,58,0.00,,,0.00,Wunderground v.1.15,2013-04-27 01:55:00,
2013-04-26 19:00:00,63.1,48.1,30.20,West,267,0.0,0.0,58,0.00,,,0.00,Wunderground v.1.15,2013-04-27 02:00:00,
2013-04-26 19:05:00,62.9,48.3,30.20,West,267,0.0,0.0,59,0.00,,,0.00,Wunderground v.1.15,2013-04-27 02:05:00,
2013-04-26 19:10:00,62.9,48.3,30.20,West,267,0.0,0.0,59,0.00,,,0.00,Wunderground v.1.15,2013-04-27 02:10:00,
2013-04-26 19:15:00,62.8,49.1,30.20,West,267,0.0,0.0,61,0.00,,,0.00,Wunderground v.1.15,2013-04-27 02:15:00,
2013-04-26 19:20:00,62.8,48.7,30.20,West,267,0.0,0.0,60,0.00,,,0.00,Wunderground v.1.15,2013-04-27 02:20:00,
2013-04-26 19:30:00,62.8,50.0,30.20,West,267,0.0,0.0,63,0.00,,,0.00,Wunderground v.1.15,2013-04-27 02:30:00,
2013-04-26 19:35:00,62.6,49.0,30.20,West,267,0.0,0.0,61,0.00,,,0.00,Wunderground v.1.15,2013-04-27 02:35:00,
2013-04-26 19:40:00,62.6,49.8,30.20,West,267,0.0,0.0,63,0.00,,,0.00,Wunderground v.1.15,2013-04-27 02:40:00,
2013-04-26 19:45:00,62.5,49.7,30.20,West,267,0.0,0.0,63,0.00,,,0.00,Wunderground v.1.15,2013-04-27 02:45:00,
2013-04-26 19:50:00,62.5,49.7,30.20,West,267,0.0,0.0,63,0.00,,,0.00,Wunderground v.1.15,2013-04-27 02:50:00,
2013-04-26 19:55:00,62.3,50.0,30.20,West,267,0.0,0.0,64,0.00,,,0.00,Wunderground v.1.15,2013-04-27 02:55:00,
2013-04-26 20:00:00,62.3,50.4,30.20,West,267,0.0,0.0,65,0.00,,,0.00,Wunderground v.1.15,2013-04-27 03:00:00,
2013-04-26 20:05:00,61.8,49.9,30.20,West,267,0.0,0.0,65,0.00,,,0.00,Wunderground v.1.15,2013-04-27 03:05:00,
2013-04-26 20:10:00,61.2,49.7,30.20,West,267,0.0,0.0,66,0.00,,,0.00,Wunderground v.1.15,2013-04-27 03:10:00,
2013-04-26 20:20:00,60.7,49.3,30.19,West,267,0.0,0.0,66,0.00,,,0.00,Wunderground v.1.15,2013-04-27 03:20:00,
2013-04-26 20:25:00,60.4,48.6,30.19,West,267,0.0,0.0,65,0.00,,,0.00,Wunderground v.1.15,2013-04-27 03:25:00,
2013-04-26 20:30:00,60.0,49.0,30.18,West,267,0.0,0.0,67,0.00,,,0.00,Wunderground v.1.15,2013-04-27 03:30:00,
2013-04-26 20:35:00,59.5,47.7,30.18,West,267,0.0,0.0,65,0.00,,,0.00,Wunderground v.1.15,2013-04-27 03:35:00,
2013-04-26 20:40:00,59.1,49.3,30.18,West,267,0.0,0.0,70,0.00,,,0.00,Wunderground v.1.15,2013-04-27 03:40:00,
2013-04-26 20:50:00,58.1,46.4,30.20,West,267,0.0,0.0,65,0.00,,,0.00,Wunderground v.1.15,2013-04-27 03:50:00,
2013-04-26 20:55:00,57.8,45.3,30.20,West,267,0.0,0.0,63,0.00,,,0.00,Wunderground v.1.15,2013-04-27 03:55:00,
2013-04-26 21:00:00,57.7,42.6,30.20,West,267,0.0,0.0,57,0.00,,,0.00,Wunderground v.1.15,2013-04-27 04:00:00,
2013-04-26 21:05:00,57.5,44.1,30.20,West,267,0.0,0.0,61,0.00,,,0.00,Wunderground v.1.15,2013-04-27 04:05:00,
2013-04-26 21:10:00,57.4,44.1,30.20,West,267,0.0,0.0,61,0.00,,,0.00,Wunderground v.1.15,2013-04-27 04:10:00,
2013-04-26 21:15:00,57.4,44.9,30.20,West,267,0.0,0.0,63,0.00,,,0.00,Wunderground v.1.15,2013-04-27 04:15:00,
2013-04-26 21:20:00,57.1,43.3,30.20,West,267,0.0,0.0,60,0.00,,,0.00,Wunderground v.1.15,2013-04-27 04:20:00,
2013-04-26 21:25:00,57.0,44.1,30.20,West,267,0.0,0.0,62,0.00,,,0.00,Wunderground v.1.15,2013-04-27 04:25:00,
2013-04-26 21:30:00,57.0,43.7,30.21,West,267,0.0,0.0,61,0.00,,,0.00,Wunderground v.1.15,2013-04-27 04:30:00,
2013-04-26 21:35:00,56.8,46.0,30.21,West,267,0.0,0.0,67,0.00,,,0.00,Wunderground v.1.15,2013-04-27 04:35:00,
2013-04-26 21:40:00,56.7,45.5,30.21,West,267,0.0,0.0,66,0.00,,,0.00,Wunderground v.1.15,2013-04-27 04:40:00,
2013-04-26 21:50:00,56.4,43.5,30.20,West,267,0.0,0.0,62,0.00,,,0.00,Wunderground v.1.15,2013-04-27 04:50:00,
2013-04-26 21:55:00,56.1,43.7,30.20,West,267,0.0,0.0,63,0.00,,,0.00,Wunderground v.1.15,2013-04-27 04:55:00,
2013-04-26 22:00:00,55.8,44.2,30.21,West,267,0.0,0.0,65,0.00,,,0.00,Wunderground v.1.15,2013-04-27 05:00:00,
2013-04-26 22:05:00,55.8,44.2,30.21,West,267,0.0,0.0,65,0.00,,,0.00,Wunderground v.1.15,2013-04-27 05:05:00,
2013-04-26 22:10:00,55.5,43.9,30.21,West,267,0.0,0.0,65,0.00,,,0.00,Wunderground v.1.15,2013-04-27 05:10:00,
2013-04-26 22:15:00,55.3,43.7,30.21,West,267,0.0,0.0,65,0.00,,,0.00,Wunderground v.1.15,2013-04-27 05:15:00,
2013-04-26 22:25:00,55.0,43.8,30.21,West,267,0.0,0.0,66,0.00,,,0.00,Wunderground v.1.15,2013-04-27 05:25:00,
2013-04-26 22:30:00,54.7,44.0,30.21,West,267,0.0,0.0,67,0.00,,,0.00,Wunderground v.1.15,2013-04-27 05:30:00,
2013-04-26 22:35:00,54.7,44.3,30.21,West,267,0.0,0.0,68,0.00,,,0.00,Wunderground v.1.15,2013-04-27 05:35:00,
2013-04-26 22:40:00,54.6,44.2,30.21,West,267,0.0,0.0,68,0.00,,,0.00,Wunderground v.1.15,2013-04-27 05:40:00,
2013-04-26 22:45:00,54.6,44.2,30.20,West,267,0.0,0.0,68,0.00,,,0.00,Wunderground v.1.15,2013-04-27 05:45:00,
2013-04-26 22:50:00,54.6,44.6,30.20,West,267,0.0,0.0,69,0.00,,,0.00,Wunderground v.1.15,2013-04-27 05:50:00,
2013-04-26 22:55:00,54.4,44.4,30.20,West,267,0.0,0.0,69,0.00,,,0.00,Wunderground v.1.15,2013-04-27 05:55:00,
2013-04-26 23:00:00,54.4,43.7,30.20,West,267,0.0,0.0,67,0.00,,,0.00,Wunderground v.1.15,2013-04-27 06:00:00,
2013-04-26 23:05:00,54.3,44.3,30.20,West,267,0.0,0.0,69,0.00,,,0.00,Wunderground v.1.15,2013-04-27 06:05:00,
2013-04-26 23:15:00,54.1,44.2,30.19,West,267,0.0,0.0,69,0.00,,,0.00,Wunderground v.1.15,2013-04-27 06:15:00,
2013-04-26 23:20:00,54.1,44.5,30.19,West,267,0.0,0.0,70,0.00,,,0.00,Wunderground v.1.15,2013-04-27 06:20:00,
2013-04-26 23:25:00,54.0,44.1,30.19,West,267,0.0,0.0,69,0.00,,,0.00,Wunderground v.1.15,2013-04-27 06:25:00,
2013-04-26 23:30:00,54.0,44.8,30.18,West,267,0.0,0.0,71,0.00,,,0.00,Wunderground v.1.15,2013-04-27 06:30:00,
2013-04-26 23:35:00,53.8,44.6,30.18,West,267,0.0,0.0,71,0.00,,,0.00,Wunderground v.1.15,2013-04-27 06:35:00,
2013-04-26 23:45:00,53.6,44.0,30.18,West,267,0.0,0.0,70,0.00,,,0.00,Wunderground v.1.15,2013-04-27 06:45:00,
2013-04-26 23:50:00,53.4,44.6,30.18,West,267,0.0,0.0,72,0.00,,,0.00,Wunderground v.1.15,2013-04-27 06:50:00,
2013-04-26 23:55:00,53.1,42.8,30.18,West,267,0.0,0.0,68,0.00,,,0.00,Wunderground v.1.15,2013-04-27 06:55:00,